createdAt,value
2023-03-10T00:00:00.452Z,6.83
2023-03-10T00:00:31.875Z,8.07
2023-03-10T00:01:14.184Z,7.50
2023-03-10T00:01:45.570Z,7.22
2023-03-10T00:02:19.934Z,7.07
2023-03-10T00:02:51.592Z,7.05
2023-03-10T00:03:23.008Z,7.10
2023-03-10T00:03:55.820Z,7.40
2023-03-10T00:04:27.832Z,7.50
2023-03-10T00:04:59.626Z,7.07
2023-03-10T00:05:31.108Z,6.47
2023-03-10T00:06:02.979Z,7.30
2023-03-10T00:06:36.267Z,6.85
2023-03-10T00:07:07.767Z,6.55
2023-03-10T00:07:39.948Z,6.72
2023-03-10T00:08:11.413Z,7.03
2023-03-10T00:08:43.463Z,6.50
2023-03-10T00:09:14.895Z,6.75
2023-03-10T00:09:46.915Z,6.68
2023-03-10T00:10:18.472Z,7.00
2023-03-10T00:10:49.831Z,7.13
2023-03-10T00:11:21.591Z,6.75
2023-03-10T00:11:53.024Z,6.75
2023-03-10T00:12:27.772Z,6.95
2023-03-10T00:12:59.437Z,6.65
2023-03-10T00:13:30.939Z,7.35
2023-03-10T00:14:02.473Z,6.75
2023-03-10T00:14:33.953Z,6.75
2023-03-10T00:15:07.073Z,6.85
2023-03-10T00:15:38.506Z,6.90
2023-03-10T00:16:18.261Z,6.97
2023-03-10T00:16:49.729Z,6.38
2023-03-10T00:17:21.179Z,6.30
2023-03-10T00:17:55.608Z,5.95
2023-03-10T00:18:27.131Z,6.18
2023-03-10T00:18:58.544Z,6.47
2023-03-10T00:19:30.541Z,6.05
2023-03-10T00:20:02.511Z,6.80
2023-03-10T00:20:33.932Z,6.65
2023-03-10T00:21:05.636Z,6.47
2023-03-10T00:21:37.034Z,6.60
2023-03-10T00:22:08.493Z,6.90
2023-03-10T00:22:41.843Z,6.60
2023-03-10T00:23:13.384Z,6.85
2023-03-10T00:23:44.874Z,6.07
2023-03-10T00:24:16.324Z,6.18
2023-03-10T00:24:47.864Z,6.00
2023-03-10T00:25:19.522Z,5.95
2023-03-10T00:25:59.239Z,6.57
2023-03-10T00:26:30.814Z,5.88
2023-03-10T00:27:02.193Z,5.20
2023-03-10T00:27:33.957Z,5.53
2023-03-10T00:28:05.435Z,6.05
2023-03-10T00:28:36.894Z,6.35
2023-03-10T00:29:10.794Z,6.55
2023-03-10T00:29:42.255Z,6.22
2023-03-10T00:30:14.475Z,5.43
2023-03-10T00:30:45.833Z,6.03
2023-03-10T00:31:22.686Z,6.72
2023-03-10T00:31:54.131Z,5.82
2023-03-10T00:32:25.798Z,5.93
2023-03-10T00:32:57.288Z,6.10
2023-03-10T00:33:30.920Z,6.40
2023-03-10T00:34:02.307Z,5.72
2023-03-10T00:34:33.760Z,5.55
2023-03-10T00:35:06.341Z,6.22
2023-03-10T00:35:37.771Z,6.72
2023-03-10T00:36:13.232Z,5.97
2023-03-10T00:36:44.783Z,6.47
2023-03-10T00:37:16.628Z,6.10
2023-03-10T00:37:48.197Z,5.87
2023-03-10T00:38:19.629Z,6.47
2023-03-10T00:38:52.817Z,6.38
2023-03-10T00:39:24.227Z,5.82
2023-03-10T00:39:55.739Z,7.28
2023-03-10T00:40:27.453Z,5.80
2023-03-10T00:41:01.017Z,5.70
2023-03-10T00:41:36.551Z,6.25
2023-03-10T00:42:08.027Z,6.32
2023-03-10T00:42:39.659Z,6.07
2023-03-10T00:43:11.143Z,6.13
2023-03-10T00:43:43.430Z,6.45
2023-03-10T00:44:15.300Z,5.95
2023-03-10T00:44:47.038Z,6.47
2023-03-10T00:45:18.510Z,6.47
2023-03-10T00:45:50.099Z,6.32
2023-03-10T00:46:23.177Z,6.57
2023-03-10T00:46:55.049Z,5.93
2023-03-10T00:47:26.497Z,6.18
2023-03-10T00:47:58.171Z,5.45
2023-03-10T00:48:29.784Z,6.27
2023-03-10T00:49:01.336Z,5.40
2023-03-10T00:49:32.746Z,6.07
2023-03-10T00:50:04.854Z,5.50
2023-03-10T00:50:36.400Z,6.15
2023-03-10T00:51:08.382Z,5.97
2023-03-10T00:51:39.828Z,5.97
2023-03-10T00:52:11.256Z,5.85
2023-03-10T00:52:42.777Z,5.82
2023-03-10T00:53:14.497Z,6.00
2023-03-10T00:53:46.100Z,5.73
2023-03-10T00:54:17.491Z,5.50
2023-03-10T00:54:49.008Z,5.70
2023-03-10T00:55:20.408Z,5.50
2023-03-10T00:56:02.408Z,5.32
2023-03-10T00:56:33.832Z,5.80
2023-03-10T00:57:05.306Z,5.63
2023-03-10T00:57:38.337Z,6.07
2023-03-10T00:58:10.101Z,5.90
2023-03-10T00:58:42.675Z,5.90
2023-03-10T00:59:14.187Z,6.43
2023-03-10T00:59:50.439Z,5.05
2023-03-10T01:00:23.456Z,5.72
2023-03-10T01:00:55.020Z,5.70
2023-03-10T01:02:20.009Z,5.72
2023-03-10T01:02:53.005Z,5.47
2023-03-10T01:03:26.313Z,5.40
2023-03-10T01:04:00.886Z,5.15
2023-03-10T01:04:32.386Z,5.47
2023-03-10T01:05:04.432Z,5.90
2023-03-10T01:05:35.877Z,5.53
2023-03-10T01:06:07.460Z,6.00
2023-03-10T01:06:39.253Z,6.10
2023-03-10T01:07:11.015Z,5.28
2023-03-10T01:07:42.525Z,5.43
2023-03-10T01:08:14.004Z,5.60
2023-03-10T01:08:45.468Z,5.28
2023-03-10T01:09:17.824Z,5.82
2023-03-10T01:09:49.348Z,5.65
2023-03-10T01:10:21.246Z,5.87
2023-03-10T01:10:52.775Z,5.35
2023-03-10T01:11:27.676Z,5.85
2023-03-10T01:11:59.289Z,6.40
2023-03-10T01:12:30.689Z,5.93
2023-03-10T01:13:02.138Z,6.13
2023-03-10T01:13:33.868Z,5.20
2023-03-10T01:14:07.884Z,5.63
2023-03-10T01:14:39.348Z,6.10
2023-03-10T01:15:12.177Z,5.50
2023-03-10T01:15:51.055Z,5.77
2023-03-10T01:16:23.159Z,5.65
2023-03-10T01:16:54.655Z,5.05
2023-03-10T01:17:26.086Z,6.00
2023-03-10T01:17:57.614Z,6.22
2023-03-10T01:18:29.052Z,4.93
2023-03-10T01:19:01.069Z,5.53
2023-03-10T01:19:32.627Z,5.97
2023-03-10T01:20:08.355Z,6.65
2023-03-10T01:20:41.728Z,5.00
2023-03-10T01:21:19.648Z,5.17
2023-03-10T01:21:51.209Z,5.28
2023-03-10T01:22:23.040Z,6.90
2023-03-10T01:22:54.554Z,5.75
2023-03-10T01:23:26.603Z,5.88
2023-03-10T01:23:58.662Z,4.95
2023-03-10T01:24:30.217Z,6.22
2023-03-10T01:25:02.016Z,6.03
2023-03-10T01:25:33.535Z,6.60
2023-03-10T01:26:05.090Z,6.30
2023-03-10T01:26:36.686Z,5.80
2023-03-10T01:27:08.068Z,6.55
2023-03-10T01:27:39.553Z,6.40
2023-03-10T01:28:11.600Z,6.28
2023-03-10T01:28:43.066Z,6.22
2023-03-10T01:29:14.446Z,5.85
2023-03-10T01:29:45.914Z,6.07
2023-03-10T01:30:17.549Z,5.93
2023-03-10T01:30:49.247Z,6.10
2023-03-10T01:31:20.995Z,5.22
2023-03-10T01:31:52.349Z,5.90
2023-03-10T01:32:24.164Z,5.95
2023-03-10T01:32:55.917Z,7.18
2023-03-10T01:33:27.583Z,6.53
2023-03-10T01:33:59.065Z,5.72
2023-03-10T01:34:30.587Z,5.78
2023-03-10T01:35:02.198Z,5.88
2023-03-10T01:35:34.047Z,5.97
2023-03-10T01:36:13.430Z,6.72
2023-03-10T01:36:44.969Z,5.55
2023-03-10T01:37:16.481Z,5.70
2023-03-10T01:37:47.859Z,4.93
2023-03-10T01:38:19.391Z,5.82
2023-03-10T01:38:50.830Z,6.18
2023-03-10T01:39:22.508Z,5.82
2023-03-10T01:39:53.937Z,5.72
2023-03-10T01:40:26.816Z,5.45
2023-03-10T01:40:58.537Z,5.80
2023-03-10T01:41:30.147Z,5.50
2023-03-10T01:42:01.572Z,5.32
2023-03-10T01:42:33.054Z,5.87
2023-03-10T01:43:19.421Z,5.60
2023-03-10T01:43:53.129Z,5.32
2023-03-10T01:44:24.544Z,6.35
2023-03-10T01:45:08.234Z,5.95
2023-03-10T01:45:39.554Z,5.65
2023-03-10T01:46:35.933Z,5.03
2023-03-10T01:47:07.640Z,5.88
2023-03-10T01:47:39.154Z,5.45
2023-03-10T01:48:11.382Z,5.13
2023-03-10T01:48:42.776Z,6.33
2023-03-10T01:49:22.556Z,5.28
2023-03-10T01:49:54.116Z,5.22
2023-03-10T01:50:25.762Z,5.68
2023-03-10T01:50:58.421Z,5.70
2023-03-10T01:51:34.281Z,6.07
2023-03-10T01:52:19.402Z,5.85
2023-03-10T01:52:56.871Z,6.00
2023-03-10T01:53:29.471Z,6.07
2023-03-10T01:54:04.101Z,4.90
2023-03-10T01:54:42.506Z,4.60
2023-03-10T01:55:23.741Z,5.60
2023-03-10T01:55:59.049Z,5.72
2023-03-10T01:56:30.982Z,6.35
2023-03-10T01:57:02.692Z,5.57
2023-03-10T01:57:40.223Z,5.90
2023-03-10T01:58:11.712Z,5.93
2023-03-10T01:58:46.401Z,6.20
2023-03-10T01:59:19.222Z,6.90
2023-03-10T01:59:52.027Z,5.55
2023-03-10T02:00:25.978Z,6.27
2023-03-10T02:00:57.668Z,5.97
2023-03-10T02:01:30.956Z,5.90
2023-03-10T02:02:03.427Z,6.80
2023-03-10T02:02:37.238Z,7.07
2023-03-10T02:03:21.646Z,5.90
2023-03-10T02:04:02.138Z,6.50
2023-03-10T02:04:37.118Z,5.82
2023-03-10T02:05:08.965Z,6.90
2023-03-10T02:05:45.584Z,5.72
2023-03-10T02:06:19.906Z,6.17
2023-03-10T02:06:52.203Z,5.53
2023-03-10T02:07:27.831Z,5.85
2023-03-10T02:08:00.535Z,5.97
2023-03-10T02:08:37.771Z,6.03
2023-03-10T02:09:10.150Z,6.07
2023-03-10T02:09:44.916Z,6.10
2023-03-10T02:10:17.075Z,5.72
2023-03-10T02:10:50.715Z,6.05
2023-03-10T02:11:22.700Z,6.00
2023-03-10T02:11:55.543Z,6.07
2023-03-10T02:12:27.071Z,6.00
2023-03-10T02:12:58.696Z,6.10
2023-03-10T02:13:30.217Z,6.60
2023-03-10T02:14:04.695Z,6.35
2023-03-10T02:14:36.770Z,6.05
2023-03-10T02:15:08.679Z,6.20
2023-03-10T02:15:41.456Z,6.18
2023-03-10T02:16:13.722Z,6.28
2023-03-10T02:16:45.816Z,6.35
2023-03-10T02:17:21.272Z,6.47
2023-03-10T02:17:53.572Z,5.43
2023-03-10T02:18:25.962Z,6.18
2023-03-10T02:18:57.650Z,6.10
2023-03-10T02:19:42.161Z,6.20
2023-03-10T02:20:30.428Z,5.55
2023-03-10T02:21:24.458Z,6.03
2023-03-10T02:22:05.710Z,5.85
2023-03-10T02:22:39.384Z,6.07
2023-03-10T02:23:18.979Z,5.43
2023-03-10T02:24:07.012Z,5.97
2023-03-10T02:24:47.016Z,5.80
2023-03-10T02:25:24.044Z,5.90
2023-03-10T02:26:05.336Z,5.90
2023-03-10T02:26:44.163Z,6.47
2023-03-10T02:27:17.081Z,4.75
2023-03-10T02:27:49.194Z,6.07
2023-03-10T02:28:20.782Z,6.05
2023-03-10T02:28:54.147Z,5.60
2023-03-10T02:29:33.224Z,6.35
2023-03-10T02:30:23.769Z,6.30
2023-03-10T02:30:56.382Z,5.53
2023-03-10T02:31:29.585Z,5.80
2023-03-10T02:32:01.783Z,6.15
2023-03-10T02:32:36.857Z,6.30
2023-03-10T02:33:13.737Z,5.75
2023-03-10T02:33:47.020Z,6.60
2023-03-10T02:34:18.780Z,6.57
2023-03-10T02:34:50.287Z,6.05
2023-03-10T02:35:22.088Z,6.65
2023-03-10T02:35:54.387Z,6.03
2023-03-10T02:36:25.947Z,5.63
2023-03-10T02:36:57.423Z,6.13
2023-03-10T02:37:34.096Z,6.25
2023-03-10T02:38:05.722Z,6.40
2023-03-10T02:38:37.307Z,6.18
2023-03-10T02:39:08.719Z,6.80
2023-03-10T02:39:40.153Z,6.38
2023-03-10T02:40:33.888Z,5.97
2023-03-10T02:41:17.051Z,5.88
2023-03-10T02:41:48.910Z,6.13
2023-03-10T02:42:22.395Z,6.35
2023-03-10T02:42:53.851Z,5.88
2023-03-10T02:43:28.994Z,7.13
2023-03-10T02:44:04.433Z,5.32
2023-03-10T02:44:36.608Z,5.80
2023-03-10T02:45:11.707Z,5.88
2023-03-10T02:45:45.960Z,6.55
2023-03-10T02:46:18.368Z,6.13
2023-03-10T02:46:50.626Z,5.78
2023-03-10T02:47:22.604Z,5.63
2023-03-10T02:47:54.195Z,5.68
2023-03-10T02:48:36.938Z,5.40
2023-03-10T02:49:10.749Z,6.55
2023-03-10T02:49:42.966Z,6.65
2023-03-10T02:50:17.852Z,5.90
2023-03-10T02:50:49.677Z,5.90
2023-03-10T02:51:28.636Z,6.35
2023-03-10T02:52:02.670Z,6.38
2023-03-10T02:52:43.807Z,5.90
2023-03-10T02:53:16.607Z,6.57
2023-03-10T02:53:48.188Z,6.65
2023-03-10T02:54:19.633Z,6.70
2023-03-10T02:54:51.000Z,6.43
2023-03-10T02:55:22.817Z,6.53
2023-03-10T02:55:55.339Z,6.07
2023-03-10T02:56:28.553Z,6.05
2023-03-10T02:56:59.990Z,6.93
2023-03-10T02:57:31.574Z,6.90
2023-03-10T02:58:03.735Z,6.72
2023-03-10T02:58:35.574Z,6.40
2023-03-10T02:59:07.921Z,6.07
2023-03-10T02:59:39.672Z,5.80
2023-03-10T03:00:12.154Z,6.55
2023-03-10T03:00:46.669Z,6.70
2023-03-10T03:01:18.275Z,6.15
2023-03-10T03:01:49.995Z,6.45
2023-03-10T03:02:21.863Z,6.95
2023-03-10T03:02:53.290Z,6.05
2023-03-10T03:03:24.962Z,6.82
2023-03-10T03:03:57.031Z,7.03
2023-03-10T03:04:28.921Z,5.82
2023-03-10T03:05:00.419Z,6.43
2023-03-10T03:05:32.137Z,6.28
2023-03-10T03:06:03.758Z,6.60
2023-03-10T03:06:35.655Z,7.00
2023-03-10T03:07:07.105Z,6.65
2023-03-10T03:07:38.768Z,6.60
2023-03-10T03:08:10.482Z,6.75
2023-03-10T03:08:41.998Z,6.72
2023-03-10T03:09:13.395Z,5.97
2023-03-10T03:09:44.871Z,6.68
2023-03-10T03:10:16.563Z,5.72
2023-03-10T03:10:48.071Z,6.53
2023-03-10T03:11:19.844Z,6.47
2023-03-10T03:11:51.460Z,5.40
2023-03-10T03:12:22.842Z,6.43
2023-03-10T03:12:56.151Z,6.45
2023-03-10T03:13:27.989Z,5.90
2023-03-10T03:13:59.474Z,6.45
2023-03-10T03:14:30.977Z,6.20
2023-03-10T03:15:02.622Z,6.07
2023-03-10T03:15:34.423Z,6.35
2023-03-10T03:16:07.421Z,6.55
2023-03-10T03:16:38.926Z,7.03
2023-03-10T03:17:10.366Z,5.53
2023-03-10T03:17:41.892Z,6.60
2023-03-10T03:18:13.381Z,5.90
2023-03-10T03:18:45.028Z,7.40
2023-03-10T03:19:16.452Z,6.65
2023-03-10T03:19:47.810Z,7.87
2023-03-10T03:20:19.292Z,6.35
2023-03-10T03:20:50.764Z,6.70
2023-03-10T03:21:22.185Z,6.10
2023-03-10T03:21:53.624Z,6.82
2023-03-10T03:22:25.122Z,5.97
2023-03-10T03:22:57.686Z,6.38
2023-03-10T03:23:29.307Z,6.05
2023-03-10T03:24:00.757Z,6.80
2023-03-10T03:24:32.552Z,6.40
2023-03-10T03:25:04.407Z,5.87
2023-03-10T03:25:38.936Z,6.22
2023-03-10T03:26:16.311Z,5.88
2023-03-10T03:26:48.346Z,6.43
2023-03-10T03:27:19.955Z,5.97
2023-03-10T03:27:51.740Z,5.95
2023-03-10T03:28:23.110Z,5.65
2023-03-10T03:28:54.512Z,6.43
2023-03-10T03:29:26.242Z,6.53
2023-03-10T03:29:59.377Z,6.15
2023-03-10T03:30:31.573Z,6.10
2023-03-10T03:31:02.974Z,5.47
2023-03-10T03:31:34.517Z,6.13
2023-03-10T03:32:06.557Z,6.75
2023-03-10T03:32:38.220Z,6.63
2023-03-10T03:33:09.641Z,6.43
2023-03-10T03:33:41.116Z,6.75
2023-03-10T03:34:12.658Z,6.28
2023-03-10T03:34:44.050Z,6.50
2023-03-10T03:35:24.511Z,5.53
2023-03-10T03:35:56.125Z,6.30
2023-03-10T03:36:27.737Z,6.10
2023-03-10T03:36:59.189Z,6.45
2023-03-10T03:37:30.645Z,6.13
2023-03-10T03:38:03.516Z,6.70
2023-03-10T03:38:34.967Z,6.60
2023-03-10T03:39:07.206Z,6.20
2023-03-10T03:39:38.876Z,5.97
2023-03-10T03:40:14.730Z,6.70
2023-03-10T03:40:46.277Z,6.18
2023-03-10T03:41:18.002Z,6.87
2023-03-10T03:41:53.433Z,5.78
2023-03-10T03:42:24.907Z,6.55
2023-03-10T03:42:56.647Z,6.30
2023-03-10T03:43:29.642Z,7.00
2023-03-10T03:44:01.223Z,6.38
2023-03-10T03:44:32.666Z,6.55
2023-03-10T03:45:04.761Z,6.35
2023-03-10T03:45:36.153Z,6.28
2023-03-10T03:46:07.796Z,6.03
2023-03-10T03:46:39.258Z,5.80
2023-03-10T03:47:10.828Z,6.78
2023-03-10T03:47:42.352Z,5.47
2023-03-10T03:48:14.734Z,6.55
2023-03-10T03:48:46.178Z,5.85
2023-03-10T03:49:17.605Z,6.60
2023-03-10T03:49:49.000Z,5.82
2023-03-10T03:50:22.136Z,6.50
2023-03-10T03:50:53.537Z,6.47
2023-03-10T03:51:24.935Z,5.60
2023-03-10T03:51:56.394Z,6.47
2023-03-10T03:52:28.196Z,5.82
2023-03-10T03:52:59.837Z,6.22
2023-03-10T03:53:34.784Z,6.78
2023-03-10T03:54:06.251Z,5.85
2023-03-10T03:54:37.716Z,6.38
2023-03-10T03:55:11.183Z,6.30
2023-03-10T03:55:42.556Z,5.85
2023-03-10T03:56:13.911Z,6.53
2023-03-10T03:56:45.467Z,5.70
2023-03-10T03:57:17.092Z,5.90
2023-03-10T03:57:48.888Z,6.38
2023-03-10T03:58:20.478Z,6.45
2023-03-10T03:58:51.925Z,7.50
2023-03-10T03:59:23.300Z,6.57
2023-03-10T03:59:54.748Z,6.65
2023-03-10T04:00:26.186Z,6.03
2023-03-10T04:00:57.740Z,6.00
2023-03-10T04:01:29.179Z,6.65
2023-03-10T04:02:00.632Z,5.35
2023-03-10T04:02:32.137Z,5.87
2023-03-10T04:03:03.779Z,6.13
2023-03-10T04:03:35.701Z,6.03
2023-03-10T04:04:07.254Z,6.25
2023-03-10T04:04:38.924Z,6.32
2023-03-10T04:05:10.522Z,6.10
2023-03-10T04:05:42.073Z,6.57
2023-03-10T04:06:13.618Z,5.65
2023-03-10T04:06:44.981Z,7.10
2023-03-10T04:07:17.034Z,6.30
2023-03-10T04:07:50.091Z,7.10
2023-03-10T04:08:21.494Z,5.63
2023-03-10T04:08:52.891Z,5.60
2023-03-10T04:09:24.348Z,6.70
2023-03-10T04:09:55.926Z,6.97
2023-03-10T04:10:28.337Z,5.88
2023-03-10T04:10:59.774Z,6.03
2023-03-10T04:11:31.109Z,5.97
2023-03-10T04:12:02.515Z,6.13
2023-03-10T04:12:34.356Z,6.07
2023-03-10T04:13:05.841Z,6.07
2023-03-10T04:13:37.430Z,5.63
2023-03-10T04:14:08.942Z,5.80
2023-03-10T04:14:40.644Z,6.45
2023-03-10T04:15:12.296Z,6.07
2023-03-10T04:15:43.771Z,6.25
2023-03-10T04:16:15.354Z,6.18
2023-03-10T04:16:47.205Z,6.30
2023-03-10T04:17:18.650Z,6.47
2023-03-10T04:17:50.159Z,5.97
2023-03-10T04:18:21.596Z,6.17
2023-03-10T04:18:52.964Z,6.25
2023-03-10T04:19:24.393Z,5.40
2023-03-10T04:20:06.711Z,5.95
2023-03-10T04:20:39.003Z,4.45
2023-03-10T04:21:10.577Z,4.90
2023-03-10T04:21:42.085Z,5.88
2023-03-10T04:22:13.433Z,5.05
2023-03-10T04:22:44.860Z,6.05
2023-03-10T04:23:16.753Z,4.88
2023-03-10T04:23:48.104Z,5.03
2023-03-10T04:24:19.654Z,5.68
2023-03-10T04:24:51.181Z,5.93
2023-03-10T04:25:22.618Z,6.07
2023-03-10T04:25:54.122Z,5.93
2023-03-10T04:26:25.741Z,5.15
2023-03-10T04:26:57.105Z,5.13
2023-03-10T04:27:28.444Z,5.45
2023-03-10T04:27:59.803Z,5.45
2023-03-10T04:28:31.240Z,5.05
2023-03-10T04:29:02.884Z,5.67
2023-03-10T04:29:34.257Z,4.75
2023-03-10T04:30:07.085Z,5.65
2023-03-10T04:30:42.120Z,5.95
2023-03-10T04:31:15.769Z,5.68
2023-03-10T04:32:04.183Z,5.22
2023-03-10T04:32:36.533Z,5.88
2023-03-10T04:33:09.952Z,5.07
2023-03-10T04:33:41.723Z,5.45
2023-03-10T04:34:13.084Z,5.57
2023-03-10T04:34:44.694Z,5.53
2023-03-10T04:35:16.134Z,5.30
2023-03-10T04:35:48.826Z,5.90
2023-03-10T04:36:20.443Z,6.25
2023-03-10T04:36:51.814Z,6.10
2023-03-10T04:37:23.520Z,5.90
2023-03-10T04:37:55.480Z,5.60
2023-03-10T04:38:26.915Z,5.20
2023-03-10T04:38:58.312Z,5.07
2023-03-10T04:39:29.893Z,6.20
2023-03-10T04:40:02.627Z,5.17
2023-03-10T04:40:34.204Z,5.65
2023-03-10T04:41:05.848Z,5.13
2023-03-10T04:41:37.235Z,6.40
2023-03-10T04:42:08.991Z,5.63
2023-03-10T04:42:40.448Z,5.85
2023-03-10T04:43:11.957Z,5.47
2023-03-10T04:43:47.120Z,5.75
2023-03-10T04:44:30.597Z,6.22
2023-03-10T04:45:03.216Z,4.85
2023-03-10T04:45:34.712Z,5.50
2023-03-10T04:46:06.539Z,4.97
2023-03-10T04:46:38.091Z,5.30
2023-03-10T04:47:09.781Z,6.03
2023-03-10T04:47:41.546Z,6.05
2023-03-10T04:48:13.000Z,5.53
2023-03-10T04:48:44.728Z,5.35
2023-03-10T04:49:16.477Z,6.40
2023-03-10T04:49:48.037Z,5.53
2023-03-10T04:50:19.754Z,5.60
2023-03-10T04:51:02.101Z,5.63
2023-03-10T04:51:34.815Z,5.57
2023-03-10T04:52:06.629Z,6.15
2023-03-10T04:52:38.546Z,5.25
2023-03-10T04:53:10.028Z,5.60
2023-03-10T04:53:41.437Z,4.85
2023-03-10T04:54:12.911Z,6.28
2023-03-10T04:54:44.441Z,6.30
2023-03-10T04:55:16.014Z,5.93
2023-03-10T04:55:47.499Z,5.80
2023-03-10T04:56:19.285Z,5.67
2023-03-10T04:56:50.673Z,5.70
2023-03-10T04:57:24.453Z,6.13
2023-03-10T04:57:55.815Z,6.05
2023-03-10T04:58:27.668Z,5.75
2023-03-10T04:58:59.810Z,5.75
2023-03-10T04:59:31.215Z,5.40
2023-03-10T05:00:05.678Z,5.88
2023-03-10T05:00:40.189Z,5.78
2023-03-10T05:01:15.423Z,5.63
2023-03-10T05:01:48.082Z,5.57
2023-03-10T05:02:19.743Z,5.65
2023-03-10T05:02:51.195Z,5.97
2023-03-10T05:03:23.442Z,6.30
2023-03-10T05:03:54.927Z,5.43
2023-03-10T05:04:26.666Z,5.75
2023-03-10T05:04:58.278Z,6.00
2023-03-10T05:05:29.658Z,5.53
2023-03-10T05:06:01.128Z,6.13
2023-03-10T05:06:32.791Z,5.32
2023-03-10T05:07:04.330Z,5.50
2023-03-10T05:07:35.862Z,5.05
2023-03-10T05:08:08.111Z,6.60
2023-03-10T05:08:39.537Z,6.75
2023-03-10T05:09:11.044Z,6.60
2023-03-10T05:09:42.691Z,5.85
2023-03-10T05:10:14.298Z,5.72
2023-03-10T05:10:47.463Z,6.18
2023-03-10T05:11:19.335Z,6.50
2023-03-10T05:11:50.702Z,6.30
2023-03-10T05:12:22.092Z,5.70
2023-03-10T05:12:53.524Z,6.13
2023-03-10T05:13:24.962Z,5.75
2023-03-10T05:13:56.422Z,6.35
2023-03-10T05:14:27.900Z,6.18
2023-03-10T05:14:59.443Z,6.28
2023-03-10T05:15:34.430Z,6.47
2023-03-10T05:16:13.584Z,5.57
2023-03-10T05:16:48.182Z,5.93
2023-03-10T05:17:19.695Z,5.28
2023-03-10T05:17:51.203Z,5.47
2023-03-10T05:18:22.708Z,5.78
2023-03-10T05:18:54.127Z,6.60
2023-03-10T05:19:25.602Z,5.97
2023-03-10T05:19:59.855Z,5.90
2023-03-10T05:20:31.323Z,6.25
2023-03-10T05:21:02.730Z,6.32
2023-03-10T05:21:34.390Z,5.80
2023-03-10T05:22:06.708Z,5.70
2023-03-10T05:22:38.604Z,5.40
2023-03-10T05:23:10.076Z,6.07
2023-03-10T05:23:41.573Z,5.82
2023-03-10T05:24:13.012Z,5.90
2023-03-10T05:24:44.431Z,5.75
2023-03-10T05:25:15.815Z,6.60
2023-03-10T05:25:47.845Z,6.05
2023-03-10T05:26:19.316Z,5.68
2023-03-10T05:26:50.768Z,6.20
2023-03-10T05:27:22.258Z,6.15
2023-03-10T05:27:54.057Z,5.60
2023-03-10T05:28:25.418Z,5.40
2023-03-10T05:28:57.932Z,6.90
2023-03-10T05:29:29.674Z,5.40
2023-03-10T05:30:01.512Z,7.22
2023-03-10T05:30:32.907Z,6.03
2023-03-10T05:31:09.983Z,5.53
2023-03-10T05:31:41.820Z,5.72
2023-03-10T05:32:13.626Z,6.05
2023-03-10T05:32:45.149Z,6.47
2023-03-10T05:33:16.579Z,5.75
2023-03-10T05:33:48.248Z,5.67
2023-03-10T05:34:19.792Z,5.30
2023-03-10T05:34:51.197Z,5.72
2023-03-10T05:35:22.580Z,5.88
2023-03-10T05:35:54.091Z,5.55
2023-03-10T05:36:25.752Z,6.03
2023-03-10T05:36:57.139Z,4.95
2023-03-10T05:37:28.633Z,5.78
2023-03-10T05:38:00.097Z,5.50
2023-03-10T05:38:31.774Z,6.13
2023-03-10T05:39:05.481Z,6.10
2023-03-10T05:39:36.879Z,5.53
2023-03-10T05:40:11.984Z,5.43
2023-03-10T05:40:44.661Z,5.18
2023-03-10T05:41:16.493Z,5.82
2023-03-10T05:41:47.867Z,5.03
2023-03-10T05:42:19.393Z,5.60
2023-03-10T05:42:51.584Z,5.43
2023-03-10T05:43:23.004Z,5.72
2023-03-10T05:43:54.403Z,5.32
2023-03-10T05:44:25.779Z,5.57
2023-03-10T05:44:57.195Z,5.38
2023-03-10T05:45:28.632Z,5.32
2023-03-10T05:46:00.302Z,5.43
2023-03-10T05:46:31.799Z,5.38
2023-03-10T05:47:03.344Z,4.88
2023-03-10T05:47:35.060Z,5.25
2023-03-10T05:48:06.583Z,6.05
2023-03-10T05:48:38.233Z,5.82
2023-03-10T05:49:09.615Z,4.80
2023-03-10T05:49:41.179Z,5.03
2023-03-10T05:50:14.490Z,4.70
2023-03-10T05:50:45.859Z,5.20
2023-03-10T05:51:17.235Z,5.47
2023-03-10T05:51:48.727Z,5.20
2023-03-10T05:52:20.098Z,4.85
2023-03-10T05:52:51.846Z,5.28
2023-03-10T05:53:23.205Z,5.38
2023-03-10T05:53:54.560Z,5.63
2023-03-10T05:54:26.467Z,4.63
2023-03-10T05:54:58.189Z,5.07
2023-03-10T05:55:29.763Z,4.45
2023-03-10T05:56:08.900Z,4.75
2023-03-10T05:56:40.291Z,5.15
2023-03-10T05:57:13.979Z,4.72
2023-03-10T05:57:46.976Z,5.05
2023-03-10T05:58:18.588Z,5.47
2023-03-10T05:58:50.990Z,5.25
2023-03-10T05:59:22.420Z,5.75
2023-03-10T05:59:53.883Z,4.22
2023-03-10T06:00:25.754Z,5.00
2023-03-10T06:00:57.094Z,5.60
2023-03-10T06:01:28.551Z,5.10
2023-03-10T06:02:00.008Z,4.55
2023-03-10T06:02:31.904Z,4.95
2023-03-10T06:03:04.682Z,4.70
2023-03-10T06:03:37.690Z,4.43
2023-03-10T06:04:09.444Z,5.28
2023-03-10T06:04:40.967Z,4.60
2023-03-10T06:05:13.509Z,5.07
2023-03-10T06:05:44.944Z,4.73
2023-03-10T06:06:16.360Z,5.38
2023-03-10T06:06:47.807Z,4.47
2023-03-10T06:07:19.278Z,3.88
2023-03-10T06:07:51.210Z,5.95
2023-03-10T06:08:23.707Z,3.78
2023-03-10T06:08:55.525Z,4.22
2023-03-10T06:09:28.100Z,4.90
2023-03-10T06:09:59.904Z,4.97
2023-03-10T06:10:31.400Z,3.92
2023-03-10T06:11:03.678Z,4.73
2023-03-10T06:11:35.161Z,4.55
2023-03-10T06:12:06.837Z,4.55
2023-03-10T06:12:38.610Z,4.85
2023-03-10T06:13:10.168Z,5.25
2023-03-10T06:13:41.624Z,4.97
2023-03-10T06:14:13.166Z,4.10
2023-03-10T06:14:44.659Z,4.68
2023-03-10T06:15:16.111Z,4.63
2023-03-10T06:15:51.857Z,5.13
2023-03-10T06:16:23.332Z,4.90
2023-03-10T06:16:55.155Z,4.53
2023-03-10T06:17:26.509Z,4.45
2023-03-10T06:17:57.896Z,4.95
2023-03-10T06:18:29.856Z,5.55
2023-03-10T06:19:01.290Z,4.90
2023-03-10T06:19:32.750Z,4.15
2023-03-10T06:20:04.871Z,4.32
2023-03-10T06:20:39.419Z,5.63
2023-03-10T06:21:13.541Z,4.43
2023-03-10T06:21:44.975Z,4.30
2023-03-10T06:22:16.355Z,4.45
2023-03-10T06:22:47.829Z,3.95
2023-03-10T06:23:20.236Z,4.32
2023-03-10T06:23:52.629Z,4.53
2023-03-10T06:24:24.014Z,3.83
2023-03-10T06:24:55.624Z,4.00
2023-03-10T06:25:27.111Z,4.88
2023-03-10T06:26:07.285Z,4.53
2023-03-10T06:26:39.447Z,4.47
2023-03-10T06:27:11.284Z,4.20
2023-03-10T06:27:42.689Z,4.50
2023-03-10T06:28:14.000Z,4.43
2023-03-10T06:28:46.899Z,4.53
2023-03-10T06:29:18.483Z,4.65
2023-03-10T06:29:50.333Z,4.80
2023-03-10T06:30:21.885Z,4.20
2023-03-10T06:30:57.114Z,5.13
2023-03-10T06:31:28.675Z,4.15
2023-03-10T06:32:00.249Z,5.18
2023-03-10T06:32:31.750Z,4.20
2023-03-10T06:33:03.676Z,4.38
2023-03-10T06:33:35.777Z,5.47
2023-03-10T06:34:07.858Z,4.82
2023-03-10T06:34:39.265Z,4.72
2023-03-10T06:35:13.678Z,4.05
2023-03-10T06:35:45.086Z,5.40
2023-03-10T06:36:17.758Z,4.78
2023-03-10T06:36:49.225Z,4.70
2023-03-10T06:37:20.665Z,4.18
2023-03-10T06:37:52.067Z,4.53
2023-03-10T06:38:24.379Z,4.43
2023-03-10T06:38:55.981Z,4.50
2023-03-10T06:39:29.166Z,4.88
2023-03-10T06:40:00.556Z,5.60
2023-03-10T06:40:31.951Z,4.45
2023-03-10T06:41:03.668Z,4.60
2023-03-10T06:41:36.862Z,4.72
2023-03-10T06:42:08.969Z,3.92
2023-03-10T06:42:41.304Z,3.85
2023-03-10T06:43:12.821Z,4.73
2023-03-10T06:43:44.920Z,3.92
2023-03-10T06:44:18.935Z,3.63
2023-03-10T06:44:54.168Z,4.30
2023-03-10T06:45:25.715Z,4.25
2023-03-10T06:45:57.127Z,4.22
2023-03-10T06:46:28.908Z,4.43
2023-03-10T06:47:01.210Z,4.20
2023-03-10T06:47:32.661Z,4.57
2023-03-10T06:48:04.351Z,4.18
2023-03-10T06:48:37.524Z,4.60
2023-03-10T06:49:09.130Z,4.13
2023-03-10T06:49:49.202Z,5.43
2023-03-10T06:50:20.588Z,4.15
2023-03-10T06:50:51.972Z,4.70
2023-03-10T06:51:23.740Z,4.68
2023-03-10T06:51:55.344Z,4.95
2023-03-10T06:52:26.893Z,5.53
2023-03-10T06:52:58.329Z,5.20
2023-03-10T06:53:29.745Z,4.28
2023-03-10T06:54:01.320Z,4.23
2023-03-10T06:54:32.785Z,4.50
2023-03-10T06:55:04.801Z,4.43
2023-03-10T06:55:36.513Z,4.95
2023-03-10T06:56:14.994Z,4.40
2023-03-10T06:56:46.373Z,5.22
2023-03-10T06:57:20.797Z,4.85
2023-03-10T06:57:52.375Z,5.18
2023-03-10T06:58:23.718Z,4.70
2023-03-10T06:58:55.144Z,4.40
2023-03-10T06:59:26.602Z,4.17
2023-03-10T06:59:58.067Z,4.35
2023-03-10T07:00:29.518Z,5.13
2023-03-10T07:01:01.551Z,4.47
2023-03-10T07:01:34.265Z,5.65
2023-03-10T07:02:07.255Z,4.15
2023-03-10T07:02:39.106Z,3.92
2023-03-10T07:03:11.507Z,4.50
2023-03-10T07:03:43.861Z,4.85
2023-03-10T07:04:15.384Z,4.25
2023-03-10T07:04:47.242Z,4.53
2023-03-10T07:05:19.638Z,4.50
2023-03-10T07:05:51.014Z,4.00
2023-03-10T07:06:23.430Z,5.00
2023-03-10T07:06:54.812Z,4.00
2023-03-10T07:07:26.259Z,4.30
2023-03-10T07:07:57.664Z,3.88
2023-03-10T07:08:29.956Z,4.35
2023-03-10T07:09:01.417Z,5.63
2023-03-10T07:09:32.771Z,5.05
2023-03-10T07:10:08.188Z,4.77
2023-03-10T07:10:39.806Z,4.80
2023-03-10T07:11:11.420Z,4.18
2023-03-10T07:11:42.856Z,5.05
2023-03-10T07:12:14.499Z,4.82
2023-03-10T07:12:48.807Z,4.55
2023-03-10T07:13:21.975Z,4.63
2023-03-10T07:13:54.717Z,4.20
2023-03-10T07:14:26.177Z,5.07
2023-03-10T07:14:57.724Z,3.75